x

Port Orford - 15 Nm West Of Port Orford, Or (46015) Wave Buoy

1:50am - Fri 19th Sep 2014 All times are PDT. -7 hours from GMT.

  • Sig Wave height 5.2ft
  • Swell Direction
  • Peak Period 10s
  • Average Period 8s
  • Wind
    11mph, 13mph gusts
  • Sea Temp 55°f
  • Air Temp 58°f
  • Sea Pressure 1016.2mb
  • Port Orford - 15 Nm West Of Port Orford, Or
  • Port Orford - 15 Nm West Of Port Orford, Or

More Historic Weather Station data

Upgrade to MSW Pro to gain access to the past 30 days of data for over 8000 Wavebouys and Weather Stations around the globe.

Join Pro

Comparision Forecast

View Surf forecast
   
Fri 09/19 1:50am 5ft 10s 8s 11 13 mph 1016.2mb 55f 58f
12:50am 5.5ft 16s 9s 11 13 mph 1015.9mb 56f 58f
Thu 09/18 11:50pm 5.5ft 16s 9s 9 11 mph 1015.6mb 56f 58f
10:50pm 6ft 9s 9s 9 11 mph 1015.4mb 56f 58f
9:50pm 6ft 10s 9s 7 11 mph 1015mb 56f 58f
8:50pm 5.5ft 11s 9s 4 7 mph 1014.5mb 56f 58f
7:50pm 5.5ft 11s 9s 9 11 mph 1013.5mb 56f 59f
6:50pm 6.5ft 11s 9s 9 11 mph 1013mb 57f 60f
5:50pm 6ft 10s 9s 9 11 mph 1012.4mb 57f 60f
4:50pm 5ft 9s 9s 7 9 mph 1012.1mb 56f 59f
3:50pm 5.5ft 17s 9s 9 11 mph 1012mb 56f 59f
2:50pm 6ft 8s 9s 7 9 mph 1011.6mb 56f 59f
1:50pm 6ft 17s 9s 9 11 mph 1011.8mb 56f 59f
11:50am 5.5ft 8s 9s 7 9 mph 1010.7mb 56f 57f
10:50am 5ft 17s 9s 7 9 mph 1010.5mb 55f 57f
9:50am 6ft 17s 9s 9 11 mph 1009.6mb 55f 57f
7:50am 6ft 17s 9s 9
mph
1008.4mb 55f 57f
6:50am 6ft 12s 9s 9 11 mph 1007.5mb 55f 57f
5:50am 6ft 17s 9s 7 9 mph 1007.1mb 55f 57f
4:50am 5.5ft 12s 8s 4 7 mph 1006.9mb 55f 57f
3:50am 6.5ft 9s 8s 4 7 mph 1006.5mb 55f 57f
2:50am 6ft 12s 9s 7 9 mph 1006.5mb 56f 57f
1:50am 6ft 12s 9s 9 11 mph 1006.7mb 56f 58f
12:50am 6ft 12s 9s 7 9 mph 1006.7mb 56f 57f
Wed 09/17 11:50pm 6ft 17s 10s 11 13 mph 1006.1mb 56f 58f
10:50pm 6ft 12s 10s 9 11 mph 1006.1mb 56f 57f
9:50pm 7ft 12s 11s 11
mph
1006.1mb 57f 58f
8:50pm 5.5ft 13s 10s 7 9 mph 1006.1mb 57f 57f
7:50pm 5ft 13s 10s 2 4 mph 1006.4mb 57f 58f
6:50pm 5ft 12s 10s 4 7 mph 1006.8mb 57f 58f
5:50pm 6ft 13s 11s 4
mph
1006.7mb 57f 57f
4:50pm 5ft 12s 10s 9 13 mph 1006.9mb 57f 57f
3:50pm 6ft 13s 11s 4 7 mph 1007.1mb 57f 57f
2:50pm 5.5ft 13s 10s 11 13 mph 1007.8mb 57f 57f
1:50pm 5.5ft 13s 10s 11 16 mph 1008.1mb 57f 57f
12:50pm 6ft 13s 10s 7 11 mph 1008.1mb 57f 57f
11:50am 6ft 19s 10s 9 11 mph 1007.9mb 58f 57f
10:50am 7ft 14s 11s 2 4 mph 1007.2mb 57f 58f
9:50am 6ft 14s 10s 9 11 mph 1006.9mb 57f 58f
8:50am 6ft 13s 11s 9 11 mph 1006.6mb 57f 57f
7:50am 6ft 14s 11s 9 11 mph 1006.3mb 58f 56f
6:50am 6ft 13s 11s 7 9 mph 1006.3mb 57f 57f
5:50am 6ft 14s 11s 7 9 mph 1006.7mb 57f 58f
4:50am 6.5ft 14s 12s 4 7 mph 1007.4mb 57f 58f
3:50am 6ft 14s 12s 4
mph
1007.8mb 57f 58f
2:50am 5ft 14s 11s 7
mph
1007.9mb 57f 58f
1:50am 6.5ft 14s 12s 4 7 mph 1008.4mb 57f 58f
Tue 09/16 11:50pm 5ft 14s 10s 4 7 mph 1009.5mb 58f 59f
10:50pm 6.5ft 15s 11s 7
mph
1009.4mb 59f 58f
9:50pm 5ft 15s 9s 4 7 mph 1009.8mb 59f 58f
8:50pm 5ft 19s 9s 2 4 mph 1010.6mb 59f 58f
7:50pm 4.5ft 19s 9s 2 4 mph 1010.7mb 58f 58f
6:50pm 4.5ft 19s 9s 4 7 mph 1011mb 58f 58f
5:50pm 4.5ft 19s 8s 4 7 mph 1011.1mb 58f 58f
4:50pm 4.5ft 19s 8s 9 11 mph 1011.6mb 58f 58f
3:50pm 3.5ft 21s 6s 11
mph
1011.9mb 58f 59f
1:50pm 3.5ft 21s 6s 16 18 mph 1012.8mb 57f 59f
12:50pm 3.5ft 21s 6s 16 18 mph 1012.9mb 57f 59f
11:50am 3.5ft 15s 6s 13 16 mph 1012.9mb 57f 58f
10:50am 3.5ft 21s 6s 13 16 mph 1013mb 57f 57f
9:50am 3ft 16s 5s 11 16 mph 1012.7mb 57f 57f
8:50am 3.5ft 21s 6s 13 18 mph 1012.6mb 57f 57f
7:50am 4ft 21s 7s 13 16 mph 1012.5mb 57f 57f
5:50am 3ft 16s 6s 11 13 mph 1011.7mb 57f 58f
4:50am 3ft 21s 6s 13 16 mph 1011.8mb 57f 58f
3:50am 3.5ft 21s 7s 16 18 mph 1011.7mb 57f 59f
2:50am 3ft 16s 6s 16 18 mph 1011.9mb 58f 59f
1:50am 2.5ft 16s 6s 11 13 mph 1012.2mb 58f 58f
Mon 09/15 11:50pm 3ft 21s 6s 11
mph
1012.7mb 58f 58f
10:50pm 3.5ft 21s 6s 9
mph
1012.6mb 58f 58f
9:50pm 3.5ft 21s 5s 11 13 mph 1012.5mb 58f 58f
8:50pm 4ft 21s 6s 16 18 mph 1012.2mb 58f 58f
7:50pm 3.5ft 21s 5s 16 20 mph 1011.6mb 58f 57f
6:50pm 4ft 5s 5s 18 22 mph 1011.6mb 57f 57f
5:50pm 4.5ft 5s 5s 16 20 mph 1011.8mb 57f 56f
4:50pm 4ft 21s 5s 20 25 mph 1011.9mb 57f 56f
3:50pm 3.5ft 4s 4s 18 20 mph 1011.9mb 57f 56f
2:50pm 3.5ft 17s 4s 18 22 mph 1011.7mb 57f 55f
1:50pm 3.5ft 17s 5s 18 22 mph 1011.8mb 57f 55f
12:50pm 3ft 14s 5s 18 20 mph 1011.8mb 57f 54f
11:50am 3ft 21s 5s 16 20 mph 1011.6mb 57f 54f
10:50am 2.5ft 12s 5s 16 18 mph 1011.3mb 58f 53f